Time;durP1;ratioP1;P1;durP2;ratioP2;P2;SDS_P1;SDS_P2;PMS_P1;PMS_P2;Temp;Humidity;BMP_temperature;BMP_pressure;BME280_temperature;BME280_humidity;BME280_pressure;Samples;Min_cycle;Max_cycle;Signal;HPM_P1;HPM_P2
2023/09/10 00:01:46;;;;;;;;;14.33;13.33;;;;;;;;5079868;28;46649;-76
2023/09/10 00:04:11;;;;;;;;;12.00;12.00;;;;;;;;5079189;28;45481;-75
2023/09/10 00:06:36;;;;;;;;;11.67;10.67;;;;;;;;5078674;28;45272;-76
2023/09/10 00:09:03;;;;;;;;;13.67;11.33;;;;;;;;5060166;28;47046;-76
2023/09/10 00:11:28;;;;;;;;;13.00;13.00;;;;;;;;5079693;28;46179;-75
2023/09/10 00:13:53;;;;;;;;;12.00;12.00;;;;;;;;5061282;28;45323;-75
2023/09/10 00:16:19;;;;;;;;;14.67;13.00;;;;;;;;5079858;28;45298;-75
2023/09/10 00:18:44;;;;;;;;;11.00;11.00;;;;;;;;5079762;28;45479;-75
2023/09/10 00:21:09;;;;;;;;;12.00;11.33;;;;;;;;5078635;28;46657;-76
2023/09/10 00:23:34;;;;;;;;;12.33;12.00;;;;;;;;5079167;28;45304;-75
2023/09/10 00:25:59;;;;;;;;;15.00;13.67;;;;;;;;5079715;28;45260;-75
2023/09/10 00:28:25;;;;;;;;;11.00;10.67;;;;;;;;5080336;27;45264;-76
2023/09/10 00:30:53;;;;;;;;;12.00;11.00;;;;;;;;5099972;27;45416;-75
2023/09/10 00:33:19;;;;;;;;;12.67;12.33;;;;;;;;5081610;27;46617;-75
2023/09/10 00:35:44;;;;;;;;;12.33;10.33;;;;;;;;5100098;27;45272;-75
2023/09/10 00:38:09;;;;;;;;;13.67;13.33;;;;;;;;5099960;27;45289;-75
2023/09/10 00:40:34;;;;;;;;;13.33;13.33;;;;;;;;5099139;27;46554;-75
2023/09/10 00:42:59;;;;;;;;;13.00;13.00;;;;;;;;5098849;27;45371;-75
2023/09/10 00:45:25;;;;;;;;;14.00;14.00;;;;;;;;5099891;27;45259;-75
2023/09/10 00:47:50;;;;;;;;;15.67;13.00;;;;;;;;5099795;27;45247;-75
2023/09/10 00:50:16;;;;;;;;;10.33;10.33;;;;;;;;5099674;27;45328;-75
2023/09/10 00:52:45;;;;;;;;;16.00;14.33;;;;;;;;5099879;27;45394;-76
2023/09/10 00:55:10;;;;;;;;;13.00;13.00;;;;;;;;5081392;27;45327;-75
2023/09/10 00:57:36;;;;;;;;;10.67;10.67;;;;;;;;5099167;27;45405;-76
2023/09/10 01:00:05;;;;;;;;;12.67;12.67;;;;;;;;5099599;27;45408;-75
2023/09/10 01:02:30;;;;;;;;;10.67;10.67;;;;;;;;5081146;27;45220;-75
2023/09/10 01:04:56;;;;;;;;;12.67;12.67;;;;;;;;5081057;27;45390;-75
2023/09/10 01:07:21;;;;;;;;;12.33;12.33;;;;;;;;5099443;27;45510;-76
2023/09/10 01:09:46;;;;;;;;;14.67;11.33;;;;;;;;5099641;27;46288;-75
2023/09/10 01:12:26;;;;;;;;;12.00;12.00;;;;;;;;5097700;27;45338;-75
2023/09/10 01:15:07;;;;;;;;;12.00;11.00;;;;;;;;5078905;28;45255;-75
2023/09/10 01:17:38;;;;;;;;;13.67;11.33;;;;;;;;5060310;28;46642;-75
2023/09/10 01:20:19;;;;;;;;;14.67;14.33;;;;;;;;5079359;28;46216;-75
2023/09/10 01:22:56;;;;;;;;;15.00;14.00;;;;;;;;5082440;28;45350;-75
2023/09/10 01:25:21;;;;;;;;;13.67;12.33;;;;;;;;5082360;28;45292;-75
2023/09/10 01:27:46;;;;;;;;;12.67;12.67;;;;;;;;5082217;28;45375;-75
2023/09/10 01:30:12;;;;;;;;;13.00;13.00;;;;;;;;5098209;27;45929;-75
2023/09/10 01:32:56;;;;;;;;;15.00;14.67;;;;;;;;5102690;27;45351;-75
2023/09/10 01:35:33;;;;;;;;;13.00;13.00;;;;;;;;5102805;27;45343;-76
2023/09/10 01:38:09;;;;;;;;;14.00;14.00;;;;;;;;5102649;27;45360;-75
2023/09/10 01:40:38;;;;;;;;;14.00;14.00;;;;;;;;5087519;27;45308;-76
2023/09/10 01:43:05;;;;;;;;;12.33;12.33;;;;;;;;5081367;28;45445;-75
2023/09/10 01:45:33;;;;;;;;;13.33;13.33;;;;;;;;5063355;28;45324;-76
2023/09/10 01:47:58;;;;;;;;;12.00;11.33;;;;;;;;5081466;28;45350;-75
2023/09/10 01:50:24;;;;;;;;;14.67;14.67;;;;;;;;5063517;28;47114;-75
2023/09/10 01:52:49;;;;;;;;;17.00;15.33;;;;;;;;5081679;28;45229;-75
2023/09/10 01:55:14;;;;;;;;;13.67;13.67;;;;;;;;5081989;28;45332;-76
2023/09/10 01:57:39;;;;;;;;;12.00;11.00;;;;;;;;5080657;28;45223;-75
2023/09/10 02:00:07;;;;;;;;;10.33;10.33;;;;;;;;5081352;28;46135;-76
2023/09/10 02:02:33;;;;;;;;;12.00;12.00;;;;;;;;5081870;28;45248;-75
2023/09/10 02:04:59;;;;;;;;;13.67;13.67;;;;;;;;5081675;28;45560;-76
2023/09/10 02:07:24;;;;;;;;;14.00;12.33;;;;;;;;5081712;28;45644;-76
2023/09/10 02:09:49;;;;;;;;;14.00;13.67;;;;;;;;5063284;28;47344;-76
2023/09/10 02:12:15;;;;;;;;;11.67;11.67;;;;;;;;5081811;28;45371;-75
2023/09/10 02:14:40;;;;;;;;;12.33;12.33;;;;;;;;5081622;28;45292;-75
2023/09/10 02:17:08;;;;;;;;;12.67;12.33;;;;;;;;5081493;28;45521;-75
2023/09/10 02:19:33;;;;;;;;;15.00;14.33;;;;;;;;5081510;28;45414;-76
2023/09/10 02:21:58;;;;;;;;;13.00;12.67;;;;;;;;5081378;28;45335;-76
2023/09/10 02:24:23;;;;;;;;;16.67;16.67;;;;;;;;5081721;28;45328;-75
2023/09/10 02:26:48;;;;;;;;;16.33;15.00;;;;;;;;5063060;28;46107;-75
2023/09/10 02:29:13;;;;;;;;;13.33;12.67;;;;;;;;5088946;27;45132;-76
2023/09/10 02:31:39;;;;;;;;;13.00;13.00;;;;;;;;5100991;27;45328;-76
2023/09/10 02:34:04;;;;;;;;;15.67;14.00;;;;;;;;5101838;27;45289;-76
2023/09/10 02:36:30;;;;;;;;;10.67;10.67;;;;;;;;5101620;27;45446;-75
2023/09/10 02:38:55;;;;;;;;;15.00;13.67;;;;;;;;5083333;27;47003;-76
2023/09/10 02:41:20;;;;;;;;;15.67;13.00;;;;;;;;5101648;27;45208;-76
2023/09/10 02:43:46;;;;;;;;;16.67;13.00;;;;;;;;5101341;27;45420;-76
2023/09/10 02:46:11;;;;;;;;;13.00;12.00;;;;;;;;5101363;27;45516;-77
2023/09/10 02:48:36;;;;;;;;;13.67;13.67;;;;;;;;5101497;27;46224;-75
2023/09/10 02:51:01;;;;;;;;;16.00;14.00;;;;;;;;5101284;27;45258;-76
2023/09/10 02:53:26;;;;;;;;;14.33;14.33;;;;;;;;5101534;27;45354;-76
2023/09/10 02:55:59;;;;;;;;;15.00;14.67;;;;;;;;5083164;27;47176;-75
2023/09/10 02:58:24;;;;;;;;;12.00;11.33;;;;;;;;5101125;27;45338;-76
2023/09/10 03:00:49;;;;;;;;;12.33;11.67;;;;;;;;5100648;27;45263;-75
2023/09/10 03:03:14;;;;;;;;;13.67;13.67;;;;;;;;5100732;27;45291;-75
2023/09/10 03:05:39;;;;;;;;;12.67;12.67;;;;;;;;5082614;27;46142;-76
2023/09/10 03:08:05;;;;;;;;;15.00;13.00;;;;;;;;5100959;27;46407;-76
2023/09/10 03:10:30;;;;;;;;;13.67;13.67;;;;;;;;5101239;27;45181;-76
2023/09/10 03:12:55;;;;;;;;;15.00;13.33;;;;;;;;5101162;27;45287;-75
2023/09/10 03:15:20;;;;;;;;;13.00;13.00;;;;;;;;5101128;27;45158;-76
2023/09/10 03:17:45;;;;;;;;;15.00;15.00;;;;;;;;5082523;27;47208;-75
2023/09/10 03:20:11;;;;;;;;;13.67;13.00;;;;;;;;5082658;27;45587;-76
2023/09/10 03:22:36;;;;;;;;;14.33;14.00;;;;;;;;5100238;27;45351;-75
2023/09/10 03:25:01;;;;;;;;;14.00;14.00;;;;;;;;5100350;27;45346;-75
2023/09/10 03:27:27;;;;;;;;;13.33;12.33;;;;;;;;5100588;27;45461;-76
2023/09/10 03:29:52;;;;;;;;;12.00;11.33;;;;;;;;5087409;27;45249;-76
2023/09/10 03:32:17;;;;;;;;;12.33;12.33;;;;;;;;5080694;28;45449;-76
2023/09/10 03:34:42;;;;;;;;;13.33;12.00;;;;;;;;5079781;28;45517;-76
2023/09/10 03:37:07;;;;;;;;;14.00;13.33;;;;;;;;5079830;28;45961;-76
2023/09/10 03:39:33;;;;;;;;;15.00;14.00;;;;;;;;5080197;28;45334;-75
2023/09/10 03:41:58;;;;;;;;;14.00;13.33;;;;;;;;5078880;28;45288;-76
2023/09/10 03:44:24;;;;;;;;;15.00;15.00;;;;;;;;5079851;28;45408;-75
2023/09/10 03:46:49;;;;;;;;;15.33;15.00;;;;;;;;5080018;28;46192;-75
2023/09/10 03:49:14;;;;;;;;;15.00;15.00;;;;;;;;5080241;28;45394;-75
2023/09/10 03:51:40;;;;;;;;;16.67;13.00;;;;;;;;5080361;28;45836;-75
2023/09/10 03:54:05;;;;;;;;;12.33;12.33;;;;;;;;5079993;28;45315;-76
2023/09/10 03:56:30;;;;;;;;;13.00;13.00;;;;;;;;5061718;28;47159;-75
2023/09/10 03:58:55;;;;;;;;;15.00;15.00;;;;;;;;5079962;28;45344;-76
2023/09/10 04:01:21;;;;;;;;;14.00;13.00;;;;;;;;5080074;28;45245;-76
2023/09/10 04:03:46;;;;;;;;;14.00;14.00;;;;;;;;5079980;28;45264;-75
2023/09/10 04:06:11;;;;;;;;;14.67;13.67;;;;;;;;5079630;28;46351;-75
2023/09/10 04:08:36;;;;;;;;;14.33;13.67;;;;;;;;5078599;28;45247;-76
2023/09/10 04:11:01;;;;;;;;;14.00;14.00;;;;;;;;5078965;28;45541;-76
2023/09/10 04:13:27;;;;;;;;;14.00;13.00;;;;;;;;5079637;28;45227;-75
2023/09/10 04:15:52;;;;;;;;;12.33;12.33;;;;;;;;5079781;28;46334;-76
2023/09/10 04:18:17;;;;;;;;;13.00;11.67;;;;;;;;5079906;28;45358;-76
2023/09/10 04:20:42;;;;;;;;;15.00;13.33;;;;;;;;5061505;28;45359;-75
2023/09/10 04:23:08;;;;;;;;;12.33;12.00;;;;;;;;5079741;28;45251;-76
2023/09/10 04:25:33;;;;;;;;;14.67;13.33;;;;;;;;5079594;28;45966;-76
2023/09/10 04:27:58;;;;;;;;;8.33;8.33;;;;;;;;5061238;28;45936;-75
2023/09/10 04:30:23;;;;;;;;;14.00;12.33;;;;;;;;5097270;27;45578;-76
2023/09/10 04:32:48;;;;;;;;;15.33;13.67;;;;;;;;5080740;27;45886;-75
2023/09/10 04:35:14;;;;;;;;;13.00;13.00;;;;;;;;5098610;27;45393;-75
2023/09/10 04:37:39;;;;;;;;;16.00;16.00;;;;;;;;5099643;27;45302;-75
2023/09/10 04:40:06;;;;;;;;;13.00;13.00;;;;;;;;5100096;27;45536;-76
2023/09/10 04:42:31;;;;;;;;;13.67;12.67;;;;;;;;5098862;27;45806;-76
2023/09/10 04:44:57;;;;;;;;;12.33;12.33;;;;;;;;5080512;27;47144;-76
2023/09/10 04:47:22;;;;;;;;;11.33;11.33;;;;;;;;5099637;27;45269;-75
2023/09/10 04:49:47;;;;;;;;;12.67;11.67;;;;;;;;5081647;27;45269;-76
2023/09/10 04:52:12;;;;;;;;;12.67;12.00;;;;;;;;5099704;27;45240;-75
2023/09/10 04:54:37;;;;;;;;;14.67;13.00;;;;;;;;5100722;27;45991;-75
2023/09/10 04:57:03;;;;;;;;;13.00;13.00;;;;;;;;5083600;27;45460;-75
2023/09/10 04:59:28;;;;;;;;;13.33;13.33;;;;;;;;5082745;28;45547;-76
2023/09/10 05:01:53;;;;;;;;;15.00;14.00;;;;;;;;5082696;28;45446;-76
2023/09/10 05:04:18;;;;;;;;;14.00;13.33;;;;;;;;5081448;28;45470;-75
2023/09/10 05:06:43;;;;;;;;;13.33;12.00;;;;;;;;5082535;28;45327;-75
2023/09/10 05:09:09;;;;;;;;;15.00;15.00;;;;;;;;5075602;28;45368;-75
2023/09/10 05:11:34;;;;;;;;;14.33;14.00;;;;;;;;5073068;28;45326;-76
2023/09/10 05:13:59;;;;;;;;;12.33;10.67;;;;;;;;5065659;28;45462;-76
2023/09/10 05:16:24;;;;;;;;;13.00;13.00;;;;;;;;5044072;28;46002;-75
2023/09/10 05:18:49;;;;;;;;;13.33;13.33;;;;;;;;5064758;28;45415;-76
2023/09/10 05:21:15;;;;;;;;;14.33;14.00;;;;;;;;5061950;28;45319;-75
2023/09/10 05:23:40;;;;;;;;;15.67;13.00;;;;;;;;5043979;28;47262;-76
2023/09/10 05:26:05;;;;;;;;;13.33;12.67;;;;;;;;5061959;28;45390;-76
2023/09/10 05:28:30;;;;;;;;;12.67;12.67;;;;;;;;5065472;27;45273;-75
2023/09/10 05:30:56;;;;;;;;;14.00;14.00;;;;;;;;5102775;27;45472;-78
2023/09/10 05:33:21;;;;;;;;;15.00;14.67;;;;;;;;5084148;27;47576;-76
2023/09/10 05:35:58;;;;;;;;;15.67;15.67;;;;;;;;5102621;27;45286;-75
2023/09/10 05:38:24;;;;;;;;;16.00;15.00;;;;;;;;5084480;27;45178;-75
2023/09/10 05:40:49;;;;;;;;;12.00;11.00;;;;;;;;5102594;27;45175;-75
2023/09/10 05:43:15;;;;;;;;;17.67;17.67;;;;;;;;5102100;27;45215;-76
2023/09/10 05:45:40;;;;;;;;;15.00;14.00;;;;;;;;5102392;27;45321;-75
2023/09/10 05:48:05;;;;;;;;;16.67;15.33;;;;;;;;5101606;27;45278;-75
2023/09/10 05:50:30;;;;;;;;;16.67;15.67;;;;;;;;5100110;27;45362;-75
2023/09/10 05:52:56;;;;;;;;;12.67;12.67;;;;;;;;5063392;28;48403;-76
2023/09/10 05:55:21;;;;;;;;;14.00;13.67;;;;;;;;5080171;28;46609;-76
2023/09/10 05:57:47;;;;;;;;;15.00;14.67;;;;;;;;5069170;28;45437;-76
2023/09/10 06:00:13;;;;;;;;;15.33;15.00;;;;;;;;5081320;28;45549;-75
2023/09/10 06:02:38;;;;;;;;;12.00;12.00;;;;;;;;5081675;28;45379;-75
2023/09/10 06:05:05;;;;;;;;;14.33;14.33;;;;;;;;5076443;28;45227;-75
2023/09/10 06:07:30;;;;;;;;;13.33;12.00;;;;;;;;5060189;28;45414;-75
2023/09/10 06:09:55;;;;;;;;;15.00;14.33;;;;;;;;5061287;28;45293;-75
2023/09/10 06:12:20;;;;;;;;;13.67;13.67;;;;;;;;5061147;28;45363;-75
2023/09/10 06:14:45;;;;;;;;;15.33;15.00;;;;;;;;5061283;28;45355;-75
2023/09/10 06:17:11;;;;;;;;;14.00;14.00;;;;;;;;5061455;28;45386;-75
2023/09/10 06:19:36;;;;;;;;;16.67;14.67;;;;;;;;5043275;28;46244;-75
2023/09/10 06:22:01;;;;;;;;;13.00;12.00;;;;;;;;5061056;28;46211;-75
2023/09/10 06:24:26;;;;;;;;;15.33;14.67;;;;;;;;5061167;28;45291;-76
2023/09/10 06:26:51;;;;;;;;;14.33;14.33;;;;;;;;5061168;28;45312;-76
2023/09/10 06:29:17;;;;;;;;;16.33;14.33;;;;;;;;5077165;27;45526;-76
2023/09/10 06:31:42;;;;;;;;;14.67;13.00;;;;;;;;5100098;27;46310;-75
2023/09/10 06:34:07;;;;;;;;;15.67;14.00;;;;;;;;5101416;27;45387;-76
2023/09/10 06:36:32;;;;;;;;;14.33;14.00;;;;;;;;5101858;27;45336;-76
2023/09/10 06:38:57;;;;;;;;;15.00;15.00;;;;;;;;5101551;27;45283;-76
2023/09/10 06:41:23;;;;;;;;;14.00;14.00;;;;;;;;5083274;27;47362;-75
2023/09/10 06:43:48;;;;;;;;;16.00;15.67;;;;;;;;5101024;27;45303;-77
2023/09/10 06:46:13;;;;;;;;;9.00;9.00;;;;;;;;5100911;27;45549;-76
2023/09/10 06:48:38;;;;;;;;;12.33;12.33;;;;;;;;5100812;27;45625;-77
2023/09/10 06:51:04;;;;;;;;;12.67;12.67;;;;;;;;5082873;27;46959;-76
2023/09/10 06:53:33;;;;;;;;;13.00;13.00;;;;;;;;5101482;27;45287;-76
2023/09/10 06:55:58;;;;;;;;;14.33;14.33;;;;;;;;5101549;27;45366;-75
2023/09/10 06:58:24;;;;;;;;;12.67;12.67;;;;;;;;5101115;27;45258;-75
2023/09/10 07:00:49;;;;;;;;;15.67;14.67;;;;;;;;5101159;27;46315;-76
2023/09/10 07:03:14;;;;;;;;;11.67;11.67;;;;;;;;5101221;27;45328;-75
2023/09/10 07:05:40;;;;;;;;;14.00;14.00;;;;;;;;5101156;27;45388;-75
2023/09/10 07:08:05;;;;;;;;;20.00;17.00;;;;;;;;5083663;27;45377;-76
2023/09/10 07:10:31;;;;;;;;;15.67;15.67;;;;;;;;5080481;28;45321;-76
2023/09/10 07:12:56;;;;;;;;;16.33;15.67;;;;;;;;5079815;28;45714;-76
2023/09/10 07:15:21;;;;;;;;;15.33;14.33;;;;;;;;5080477;28;45453;-75
2023/09/10 07:17:46;;;;;;;;;14.67;14.33;;;;;;;;5080208;28;45261;-75
2023/09/10 07:20:11;;;;;;;;;14.00;14.00;;;;;;;;5080572;28;45355;-77
2023/09/10 07:22:36;;;;;;;;;18.33;15.67;;;;;;;;5061533;28;45356;-76
2023/09/10 07:25:02;;;;;;;;;14.33;12.33;;;;;;;;5080284;28;45296;-75
2023/09/10 07:27:27;;;;;;;;;16.33;15.00;;;;;;;;5079357;28;45314;-77
2023/09/10 07:29:52;;;;;;;;;14.67;14.00;;;;;;;;5093678;27;45358;-77
2023/09/10 07:32:17;;;;;;;;;14.67;14.67;;;;;;;;5101009;27;45522;-76
2023/09/10 07:34:42;;;;;;;;;13.33;13.33;;;;;;;;5082707;27;45308;-77
2023/09/10 07:37:08;;;;;;;;;11.67;11.67;;;;;;;;5099686;27;45319;-76
2023/09/10 07:39:33;;;;;;;;;14.00;11.33;;;;;;;;5100466;27;46464;-77
2023/09/10 07:41:58;;;;;;;;;13.00;12.00;;;;;;;;5100057;27;45272;-78
2023/09/10 07:44:23;;;;;;;;;13.67;13.67;;;;;;;;5080407;27;45591;-77
2023/09/10 07:46:48;;;;;;;;;15.00;14.00;;;;;;;;5098872;27;45341;-77
2023/09/10 07:49:13;;;;;;;;;14.00;13.33;;;;;;;;5098936;27;45362;-77
2023/09/10 07:51:39;;;;;;;;;16.00;15.00;;;;;;;;5098831;27;45276;-78
2023/09/10 07:54:04;;;;;;;;;13.00;13.00;;;;;;;;5099636;27;45266;-77
2023/09/10 07:56:29;;;;;;;;;15.33;14.00;;;;;;;;5100407;27;45450;-78
2023/09/10 07:58:54;;;;;;;;;13.67;12.67;;;;;;;;5081860;27;47866;-75
2023/09/10 08:01:20;;;;;;;;;14.00;13.67;;;;;;;;5100476;27;45153;-76
2023/09/10 08:03:45;;;;;;;;;13.67;13.00;;;;;;;;5100512;27;45587;-76
2023/09/10 08:06:10;;;;;;;;;15.33;15.33;;;;;;;;5100134;27;45244;-75
2023/09/10 08:08:35;;;;;;;;;14.67;14.00;;;;;;;;5100376;27;45358;-76
2023/09/10 08:11:00;;;;;;;;;14.67;14.00;;;;;;;;5100363;27;45212;-76
2023/09/10 08:13:25;;;;;;;;;13.67;13.67;;;;;;;;5100293;27;45567;-76
2023/09/10 08:15:51;;;;;;;;;16.00;14.67;;;;;;;;5100235;27;45271;-76
2023/09/10 08:18:16;;;;;;;;;13.67;13.67;;;;;;;;5100155;27;45668;-78
2023/09/10 08:20:42;;;;;;;;;14.00;13.00;;;;;;;;5100017;27;45314;-76
2023/09/10 08:23:07;;;;;;;;;13.00;13.00;;;;;;;;5099193;27;45252;-75
2023/09/10 08:25:33;;;;;;;;;14.00;12.67;;;;;;;;5050130;28;46411;-74
2023/09/10 08:27:59;;;;;;;;;15.33;14.00;;;;;;;;5056405;28;48040;-74
2023/09/10 08:30:25;;;;;;;;;16.00;15.67;;;;;;;;5099463;27;45376;-74
2023/09/10 08:32:50;;;;;;;;;14.33;13.00;;;;;;;;5103779;27;45301;-74
2023/09/10 08:35:17;;;;;;;;;13.67;13.33;;;;;;;;5085043;27;47076;-74
2023/09/10 08:37:42;;;;;;;;;16.00;16.00;;;;;;;;5082057;27;45462;-74
2023/09/10 08:40:08;;;;;;;;;16.00;15.00;;;;;;;;5077327;28;45310;-74
2023/09/10 08:42:42;;;;;;;;;14.67;14.67;;;;;;;;5066875;28;45425;-74
2023/09/10 08:45:09;;;;;;;;;13.67;13.67;;;;;;;;5071268;28;46358;-74
2023/09/10 08:47:41;;;;;;;;;13.00;13.00;;;;;;;;5055103;28;46387;-74
2023/09/10 08:50:08;;;;;;;;;16.33;15.33;;;;;;;;5070836;28;45402;-74
2023/09/10 08:52:34;;;;;;;;;14.00;13.67;;;;;;;;5077334;28;45240;-74
2023/09/10 08:54:59;;;;;;;;;15.00;15.00;;;;;;;;5057383;28;46432;-74
2023/09/10 08:57:27;;;;;;;;;13.00;11.00;;;;;;;;5050457;28;47143;-73
2023/09/10 08:59:52;;;;;;;;;12.33;12.00;;;;;;;;5081716;28;45403;-72
2023/09/10 09:02:17;;;;;;;;;16.67;14.67;;;;;;;;5082428;28;45347;-74
2023/09/10 09:04:43;;;;;;;;;15.00;14.67;;;;;;;;5081078;28;45244;-73
2023/09/10 09:07:11;;;;;;;;;14.33;14.33;;;;;;;;5082329;28;45415;-74
2023/09/10 09:09:39;;;;;;;;;13.00;12.33;;;;;;;;5082566;28;45292;-73
2023/09/10 09:12:06;;;;;;;;;15.00;15.00;;;;;;;;5082599;28;45257;-73
2023/09/10 09:14:32;;;;;;;;;14.00;13.33;;;;;;;;5064167;28;47680;-73
2023/09/10 09:16:57;;;;;;;;;13.00;13.00;;;;;;;;5079202;28;46003;-74
2023/09/10 09:19:22;;;;;;;;;13.00;13.00;;;;;;;;5080525;28;45436;-73
2023/09/10 09:21:49;;;;;;;;;14.33;12.67;;;;;;;;5061313;28;45470;-72
2023/09/10 09:24:14;;;;;;;;;13.33;12.33;;;;;;;;5074174;28;45533;-73
2023/09/10 09:26:41;;;;;;;;;13.00;13.00;;;;;;;;5082137;28;46232;-73
2023/09/10 09:29:06;;;;;;;;;13.33;13.33;;;;;;;;5088936;27;45339;-73
2023/09/10 09:31:32;;;;;;;;;13.33;12.67;;;;;;;;5081159;27;45448;-74
2023/09/10 09:33:57;;;;;;;;;14.00;13.33;;;;;;;;5079531;28;45890;-74
2023/09/10 09:36:27;;;;;;;;;13.00;11.33;;;;;;;;5077645;27;46423;-73
2023/09/10 09:38:52;;;;;;;;;12.33;11.67;;;;;;;;5069842;28;45659;-74
2023/09/10 09:41:17;;;;;;;;;10.67;10.67;;;;;;;;5080780;27;45630;-73
2023/09/10 09:43:43;;;;;;;;;14.00;11.67;;;;;;;;5080158;28;45941;-73
2023/09/10 09:46:08;;;;;;;;;15.00;15.00;;;;;;;;5080350;27;45429;-73
2023/09/10 09:48:34;;;;;;;;;15.00;13.33;;;;;;;;5081202;28;45374;-74
2023/09/10 09:51:01;;;;;;;;;13.00;12.00;;;;;;;;5063170;28;45654;-74
2023/09/10 09:53:27;;;;;;;;;14.00;14.00;;;;;;;;5078092;28;45409;-73
2023/09/10 09:55:55;;;;;;;;;13.00;11.33;;;;;;;;5081406;27;45354;-73
2023/09/10 09:58:21;;;;;;;;;12.00;10.67;;;;;;;;5080828;28;45327;-75
2023/09/10 10:00:46;;;;;;;;;10.75;10.75;;;;;;;;5062277;28;45326;-73
2023/09/10 10:03:11;;;;;;;;;14.33;13.33;;;;;;;;5061798;28;47240;-73
2023/09/10 10:05:37;;;;;;;;;14.67;14.67;;;;;;;;5079849;27;46321;-72
2023/09/10 10:08:03;;;;;;;;;11.67;11.67;;;;;;;;5080776;28;45381;-72
2023/09/10 10:10:28;;;;;;;;;13.33;12.33;;;;;;;;5079048;28;45636;-74
2023/09/10 10:12:54;;;;;;;;;12.00;11.67;;;;;;;;5078498;28;45543;-75
2023/09/10 10:15:21;;;;;;;;;9.33;8.33;;;;;;;;5079496;28;45705;-74
2023/09/10 10:17:47;;;;;;;;;15.00;14.00;;;;;;;;5061167;28;45404;-74
2023/09/10 10:20:13;;;;;;;;;17.00;13.00;;;;;;;;5079517;28;45431;-74
2023/09/10 10:22:38;;;;;;;;;14.67;14.67;;;;;;;;5079131;28;45356;-74
2023/09/10 10:25:04;;;;;;;;;13.67;13.00;;;;;;;;5080946;28;45532;-74
2023/09/10 10:27:31;;;;;;;;;12.33;12.33;;;;;;;;5081234;28;45688;-74
2023/09/10 10:29:56;;;;;;;;;12.00;12.00;;;;;;;;5095395;27;45267;-73
2023/09/10 10:32:25;;;;;;;;;15.67;13.67;;;;;;;;5101764;27;45530;-73
2023/09/10 10:34:56;;;;;;;;;14.00;12.33;;;;;;;;5101789;27;46327;-72
2023/09/10 10:37:24;;;;;;;;;11.33;11.33;;;;;;;;5101480;27;45378;-73
2023/09/10 10:39:52;;;;;;;;;11.67;11.67;;;;;;;;5088985;27;45325;-74
2023/09/10 10:42:20;;;;;;;;;14.67;13.33;;;;;;;;5041171;28;45545;-74
2023/09/10 10:44:47;;;;;;;;;11.67;10.33;;;;;;;;5059990;28;45296;-74
2023/09/10 10:47:13;;;;;;;;;14.00;13.67;;;;;;;;5042460;28;45354;-73
2023/09/10 10:49:43;;;;;;;;;15.67;13.67;;;;;;;;5060938;28;45376;-73
2023/09/10 10:52:09;;;;;;;;;13.00;13.00;;;;;;;;5044288;28;46156;-74
2023/09/10 10:54:35;;;;;;;;;10.00;10.00;;;;;;;;5069433;28;45468;-73
2023/09/10 10:57:03;;;;;;;;;12.67;12.67;;;;;;;;5069743;28;45403;-73
2023/09/10 10:59:28;;;;;;;;;12.00;12.00;;;;;;;;5053093;28;45402;-74
2023/09/10 11:02:12;;;;;;;;;14.00;13.33;;;;;;;;5071087;28;45427;-73
2023/09/10 11:04:37;;;;;;;;;14.00;13.00;;;;;;;;5074573;28;45626;-73
2023/09/10 11:07:14;;;;;;;;;13.33;13.33;;;;;;;;5052515;28;45840;-74
2023/09/10 11:09:40;;;;;;;;;12.00;12.00;;;;;;;;5065810;28;45361;-73
2023/09/10 11:12:06;;;;;;;;;7.67;7.00;;;;;;;;5060207;28;45374;-73
2023/09/10 11:14:51;;;;;;;;;12.33;10.67;;;;;;;;5060273;28;45430;-74
2023/09/10 11:17:24;;;;;;;;;14.00;14.00;;;;;;;;5060224;28;45375;-74
2023/09/10 11:19:49;;;;;;;;;12.67;11.67;;;;;;;;5060421;28;45308;-73
2023/09/10 11:22:14;;;;;;;;;14.67;11.67;;;;;;;;5060121;28;45296;-73
2023/09/10 11:24:40;;;;;;;;;13.00;11.33;;;;;;;;5060008;28;45353;-74
2023/09/10 11:27:19;;;;;;;;;15.00;12.67;;;;;;;;5059908;28;45363;-74
2023/09/10 11:29:45;;;;;;;;;14.67;14.67;;;;;;;;5066527;27;45295;-74
2023/09/10 11:32:17;;;;;;;;;14.00;13.33;;;;;;;;5100659;27;45508;-73
2023/09/10 11:34:42;;;;;;;;;13.67;13.00;;;;;;;;5100560;27;46996;-73
2023/09/10 11:37:08;;;;;;;;;13.00;12.67;;;;;;;;5100639;27;45313;-74
2023/09/10 11:39:34;;;;;;;;;14.33;14.33;;;;;;;;5085136;27;45247;-73
2023/09/10 11:42:01;;;;;;;;;12.33;12.00;;;;;;;;5079669;28;45484;-74
2023/09/10 11:44:26;;;;;;;;;16.00;15.67;;;;;;;;5061375;28;48517;-73
2023/09/10 11:46:52;;;;;;;;;8.00;7.67;;;;;;;;5078720;28;45313;-78
2023/09/10 11:49:18;;;;;;;;;13.00;12.00;;;;;;;;5080273;28;45373;-76
2023/09/10 11:51:44;;;;;;;;;12.00;12.00;;;;;;;;5078431;28;45329;-78
2023/09/10 11:54:16;;;;;;;;;12.33;12.33;;;;;;;;5067151;28;46693;-77
2023/09/10 11:56:41;;;;;;;;;11.67;11.67;;;;;;;;5079682;28;45405;-77
2023/09/10 11:59:06;;;;;;;;;12.00;12.00;;;;;;;;5079390;28;45307;-78
2023/09/10 12:01:32;;;;;;;;;12.00;11.67;;;;;;;;5079625;28;45371;-77
2023/09/10 12:03:57;;;;;;;;;14.00;14.00;;;;;;;;5078303;28;45459;-77
2023/09/10 12:06:22;;;;;;;;;15.67;14.67;;;;;;;;5079719;28;45321;-78
2023/09/10 12:08:47;;;;;;;;;13.00;12.00;;;;;;;;5080019;28;45246;-77
2023/09/10 12:11:15;;;;;;;;;14.00;14.00;;;;;;;;5079838;28;45295;-78
2023/09/10 12:13:41;;;;;;;;;17.33;16.33;;;;;;;;5079524;28;45330;-77
2023/09/10 12:16:06;;;;;;;;;13.00;12.33;;;;;;;;5079616;28;45345;-77
2023/09/10 12:18:32;;;;;;;;;12.00;12.00;;;;;;;;5079957;28;45248;-78
2023/09/10 12:20:58;;;;;;;;;13.33;13.33;;;;;;;;5079474;28;45335;-77
2023/09/10 12:23:24;;;;;;;;;14.00;13.67;;;;;;;;5079149;28;45560;-77
2023/09/10 12:25:53;;;;;;;;;16.67;16.00;;;;;;;;5061393;28;45880;-76
2023/09/10 12:28:18;;;;;;;;;16.33;14.33;;;;;;;;5078730;27;45342;-76
2023/09/10 12:30:43;;;;;;;;;16.33;15.33;;;;;;;;5099767;27;45361;-75
2023/09/10 12:33:10;;;;;;;;;12.00;12.00;;;;;;;;5099601;27;45418;-76
2023/09/10 12:35:35;;;;;;;;;12.67;12.67;;;;;;;;5099746;27;45386;-78
2023/09/10 12:38:00;;;;;;;;;15.00;15.00;;;;;;;;5096819;27;45302;-76
2023/09/10 12:40:25;;;;;;;;;15.00;14.00;;;;;;;;5067526;28;45487;-78
2023/09/10 12:42:51;;;;;;;;;13.67;13.67;;;;;;;;5048717;28;48539;-77
2023/09/10 12:45:16;;;;;;;;;13.33;13.33;;;;;;;;5076355;28;45658;-75
2023/09/10 12:47:42;;;;;;;;;14.00;13.33;;;;;;;;5078951;27;45370;-75
2023/09/10 12:50:08;;;;;;;;;12.67;12.67;;;;;;;;5079158;28;45280;-75
2023/09/10 12:52:33;;;;;;;;;15.33;15.00;;;;;;;;5059400;28;47814;-75
2023/09/10 12:54:58;;;;;;;;;14.67;14.67;;;;;;;;5079086;28;45415;-75
2023/09/10 12:57:24;;;;;;;;;13.67;12.33;;;;;;;;5078674;27;45280;-76
2023/09/10 12:59:55;;;;;;;;;14.00;13.67;;;;;;;;5070062;28;45488;-75
2023/09/10 13:02:23;;;;;;;;;16.67;15.33;;;;;;;;5068742;27;46164;-76
2023/09/10 13:04:49;;;;;;;;;12.33;12.33;;;;;;;;5068282;27;45503;-75
2023/09/10 13:07:14;;;;;;;;;13.00;12.33;;;;;;;;5061362;27;45261;-76
2023/09/10 13:09:39;;;;;;;;;14.67;13.33;;;;;;;;5074899;27;45329;-76
2023/09/10 13:12:04;;;;;;;;;14.67;14.67;;;;;;;;5070024;28;46140;-75
2023/09/10 13:14:30;;;;;;;;;14.33;14.33;;;;;;;;5070135;27;45209;-75
2023/09/10 13:16:57;;;;;;;;;15.00;15.00;;;;;;;;5053600;28;45250;-76
2023/09/10 13:19:22;;;;;;;;;11.67;11.67;;;;;;;;5071589;27;45406;-75
2023/09/10 13:21:47;;;;;;;;;15.33;14.67;;;;;;;;5079943;28;45995;-76
2023/09/10 13:24:12;;;;;;;;;14.33;14.00;;;;;;;;5060557;28;45563;-75
2023/09/10 13:26:37;;;;;;;;;14.67;14.67;;;;;;;;5057823;28;45402;-75
2023/09/10 13:29:02;;;;;;;;;13.00;13.00;;;;;;;;5088225;27;45366;-76
2023/09/10 13:31:28;;;;;;;;;13.67;13.67;;;;;;;;5053884;28;47189;-76
2023/09/10 13:33:53;;;;;;;;;13.67;13.67;;;;;;;;5076102;27;45347;-75
2023/09/10 13:36:18;;;;;;;;;13.00;13.00;;;;;;;;5081076;28;45664;-74
2023/09/10 13:38:43;;;;;;;;;10.00;10.00;;;;;;;;5081088;27;45421;-76
2023/09/10 13:41:08;;;;;;;;;14.00;14.00;;;;;;;;5062184;28;45332;-76
2023/09/10 13:43:34;;;;;;;;;12.33;12.33;;;;;;;;5070462;27;45362;-78
2023/09/10 13:46:02;;;;;;;;;15.33;15.33;;;;;;;;5063629;28;45343;-77
2023/09/10 13:48:27;;;;;;;;;14.33;14.33;;;;;;;;5078441;27;45322;-77
2023/09/10 13:50:52;;;;;;;;;14.33;13.33;;;;;;;;5081659;28;45296;-75
2023/09/10 13:53:17;;;;;;;;;17.00;14.33;;;;;;;;5081900;27;45372;-76
2023/09/10 13:55:43;;;;;;;;;13.67;13.67;;;;;;;;5063788;28;45265;-76
2023/09/10 13:58:08;;;;;;;;;12.33;11.67;;;;;;;;5062995;28;46037;-75
2023/09/10 14:00:33;;;;;;;;;14.00;14.00;;;;;;;;5061468;28;48176;-76
2023/09/10 14:02:58;;;;;;;;;12.00;12.00;;;;;;;;5073163;27;45311;-75
2023/09/10 14:05:24;;;;;;;;;13.00;13.00;;;;;;;;5080723;28;45294;-75
2023/09/10 14:07:49;;;;;;;;;14.00;14.00;;;;;;;;5081430;27;45363;-76
2023/09/10 14:10:14;;;;;;;;;13.00;13.00;;;;;;;;5081208;28;45877;-78
2023/09/10 14:12:39;;;;;;;;;13.33;13.33;;;;;;;;5080225;28;45293;-76